sensor_id;sensor_type;location;lat;lon;timestamp;temperature;humidity
2657;DHT22;1338;48.176;11.792;2023-04-25T00:00:02;5.60;1.00
2657;DHT22;1338;48.176;11.792;2023-04-25T00:02:39;5.70;1.00
2657;DHT22;1338;48.176;11.792;2023-04-25T00:05:08;5.70;1.00
2657;DHT22;1338;48.176;11.792;2023-04-25T00:07:37;5.70;1.00
2657;DHT22;1338;48.176;11.792;2023-04-25T00:10:07;5.70;1.00
2657;DHT22;1338;48.176;11.792;2023-04-25T00:12:35;5.70;1.00
2657;DHT22;1338;48.176;11.792;2023-04-25T00:15:04;5.70;1.00
2657;DHT22;1338;48.176;11.792;2023-04-25T00:17:32;5.80;1.00
2657;DHT22;1338;48.176;11.792;2023-04-25T00:20:03;5.80;1.00
2657;DHT22;1338;48.176;11.792;2023-04-25T00:22:36;5.90;1.00
2657;DHT22;1338;48.176;11.792;2023-04-25T00:25:05;5.90;1.00
2657;DHT22;1338;48.176;11.792;2023-04-25T00:27:34;5.90;1.00
2657;DHT22;1338;48.176;11.792;2023-04-25T00:30:03;5.90;1.00
2657;DHT22;1338;48.176;11.792;2023-04-25T00:32:31;5.90;1.00
2657;DHT22;1338;48.176;11.792;2023-04-25T00:34:59;5.80;1.00
2657;DHT22;1338;48.176;11.792;2023-04-25T00:37:28;5.70;1.00
2657;DHT22;1338;48.176;11.792;2023-04-25T00:39:57;5.80;1.00
2657;DHT22;1338;48.176;11.792;2023-04-25T00:42:26;5.90;1.00
2657;DHT22;1338;48.176;11.792;2023-04-25T00:44:54;6.00;1.00
2657;DHT22;1338;48.176;11.792;2023-04-25T00:47:23;6.10;1.00
2657;DHT22;1338;48.176;11.792;2023-04-25T00:49:53;6.10;1.00
2657;DHT22;1338;48.176;11.792;2023-04-25T00:52:21;6.10;1.00
2657;DHT22;1338;48.176;11.792;2023-04-25T00:54:50;6.20;1.00
2657;DHT22;1338;48.176;11.792;2023-04-25T00:57:19;6.30;1.00
2657;DHT22;1338;48.176;11.792;2023-04-25T00:59:47;6.40;1.00
2657;DHT22;1338;48.176;11.792;2023-04-25T01:02:19;6.40;1.00
2657;DHT22;1338;48.176;11.792;2023-04-25T01:04:48;6.40;1.00
2657;DHT22;1338;48.176;11.792;2023-04-25T01:07:16;6.40;1.00
2657;DHT22;1338;48.176;11.792;2023-04-25T01:09:45;6.40;1.00
2657;DHT22;1338;48.176;11.792;2023-04-25T01:12:14;6.40;1.00
2657;DHT22;1338;48.176;11.792;2023-04-25T01:14:42;6.30;1.00
2657;DHT22;1338;48.176;11.792;2023-04-25T01:17:11;6.20;1.00
2657;DHT22;1338;48.176;11.792;2023-04-25T01:19:40;6.20;1.00
2657;DHT22;1338;48.176;11.792;2023-04-25T01:22:09;6.10;1.00
2657;DHT22;1338;48.176;11.792;2023-04-25T01:24:38;6.10;1.00
2657;DHT22;1338;48.176;11.792;2023-04-25T01:27:06;6.10;1.00
2657;DHT22;1338;48.176;11.792;2023-04-25T01:29:35;6.00;1.00
2657;DHT22;1338;48.176;11.792;2023-04-25T01:32:04;6.00;1.00
2657;DHT22;1338;48.176;11.792;2023-04-25T01:34:33;6.00;1.00
2657;DHT22;1338;48.176;11.792;2023-04-25T01:37:01;5.90;1.00
2657;DHT22;1338;48.176;11.792;2023-04-25T01:39:30;5.80;1.00
2657;DHT22;1338;48.176;11.792;2023-04-25T01:41:59;5.70;1.00
2657;DHT22;1338;48.176;11.792;2023-04-25T01:44:30;5.60;1.00
2657;DHT22;1338;48.176;11.792;2023-04-25T01:46:58;5.70;1.00
2657;DHT22;1338;48.176;11.792;2023-04-25T01:49:27;5.70;1.00
2657;DHT22;1338;48.176;11.792;2023-04-25T01:51:58;5.70;1.00
2657;DHT22;1338;48.176;11.792;2023-04-25T01:54:26;5.60;1.00
2657;DHT22;1338;48.176;11.792;2023-04-25T01:56:57;5.50;1.00
2657;DHT22;1338;48.176;11.792;2023-04-25T01:59:25;5.40;1.00
2657;DHT22;1338;48.176;11.792;2023-04-25T02:02:20;5.40;1.00
2657;DHT22;1338;48.176;11.792;2023-04-25T02:04:48;5.40;1.00
2657;DHT22;1338;48.176;11.792;2023-04-25T02:07:16;5.40;1.00
2657;DHT22;1338;48.176;11.792;2023-04-25T02:09:51;5.40;1.00
2657;DHT22;1338;48.176;11.792;2023-04-25T02:12:22;5.40;1.00
2657;DHT22;1338;48.176;11.792;2023-04-25T02:15:10;5.50;1.00
2657;DHT22;1338;48.176;11.792;2023-04-25T02:17:42;5.60;1.00
2657;DHT22;1338;48.176;11.792;2023-04-25T02:20:12;5.70;1.00
2657;DHT22;1338;48.176;11.792;2023-04-25T02:22:40;5.70;1.00
2657;DHT22;1338;48.176;11.792;2023-04-25T02:25:09;5.80;1.00
2657;DHT22;1338;48.176;11.792;2023-04-25T02:27:39;5.90;99.90
2657;DHT22;1338;48.176;11.792;2023-04-25T02:30:08;5.90;99.90
2657;DHT22;1338;48.176;11.792;2023-04-25T02:32:36;6.00;99.90
2657;DHT22;1338;48.176;11.792;2023-04-25T02:35:05;6.00;99.90
2657;DHT22;1338;48.176;11.792;2023-04-25T02:37:34;5.90;99.90
2657;DHT22;1338;48.176;11.792;2023-04-25T02:40:03;5.80;99.90
2657;DHT22;1338;48.176;11.792;2023-04-25T02:42:32;5.80;99.90
2657;DHT22;1338;48.176;11.792;2023-04-25T02:45:01;5.70;99.90
2657;DHT22;1338;48.176;11.792;2023-04-25T02:47:30;5.70;1.00
2657;DHT22;1338;48.176;11.792;2023-04-25T02:49:58;5.60;1.00
2657;DHT22;1338;48.176;11.792;2023-04-25T02:52:26;5.60;1.00
2657;DHT22;1338;48.176;11.792;2023-04-25T02:55:03;5.60;1.00
2657;DHT22;1338;48.176;11.792;2023-04-25T02:57:33;5.60;1.00
2657;DHT22;1338;48.176;11.792;2023-04-25T03:00:03;5.60;1.00
2657;DHT22;1338;48.176;11.792;2023-04-25T03:02:32;5.50;1.00
2657;DHT22;1338;48.176;11.792;2023-04-25T03:05:00;5.60;1.00
2657;DHT22;1338;48.176;11.792;2023-04-25T03:07:30;5.60;1.00
2657;DHT22;1338;48.176;11.792;2023-04-25T03:09:58;5.70;1.00
2657;DHT22;1338;48.176;11.792;2023-04-25T03:12:28;5.80;1.00
2657;DHT22;1338;48.176;11.792;2023-04-25T03:14:57;5.80;1.00
2657;DHT22;1338;48.176;11.792;2023-04-25T03:17:27;5.80;1.00
2657;DHT22;1338;48.176;11.792;2023-04-25T03:19:55;5.90;99.90
2657;DHT22;1338;48.176;11.792;2023-04-25T03:22:23;6.00;99.90
2657;DHT22;1338;48.176;11.792;2023-04-25T03:24:52;6.10;99.90
2657;DHT22;1338;48.176;11.792;2023-04-25T03:27:20;6.20;99.90
2657;DHT22;1338;48.176;11.792;2023-04-25T03:29:48;6.20;99.90
2657;DHT22;1338;48.176;11.792;2023-04-25T03:32:16;6.30;99.90
2657;DHT22;1338;48.176;11.792;2023-04-25T03:34:47;6.30;99.90
2657;DHT22;1338;48.176;11.792;2023-04-25T03:37:15;6.40;99.90
2657;DHT22;1338;48.176;11.792;2023-04-25T03:39:43;6.40;99.90
2657;DHT22;1338;48.176;11.792;2023-04-25T03:42:11;6.50;99.90
2657;DHT22;1338;48.176;11.792;2023-04-25T03:44:39;6.40;99.90
2657;DHT22;1338;48.176;11.792;2023-04-25T03:47:08;6.30;99.90
2657;DHT22;1338;48.176;11.792;2023-04-25T03:49:36;6.30;99.90
2657;DHT22;1338;48.176;11.792;2023-04-25T03:52:07;6.20;99.90
2657;DHT22;1338;48.176;11.792;2023-04-25T03:54:38;6.20;99.90
2657;DHT22;1338;48.176;11.792;2023-04-25T03:57:18;6.20;99.90
2657;DHT22;1338;48.176;11.792;2023-04-25T03:59:46;6.20;99.90
2657;DHT22;1338;48.176;11.792;2023-04-25T04:02:15;6.20;99.90
2657;DHT22;1338;48.176;11.792;2023-04-25T04:04:43;6.20;99.90
2657;DHT22;1338;48.176;11.792;2023-04-25T04:07:14;6.30;99.90
2657;DHT22;1338;48.176;11.792;2023-04-25T04:09:48;6.20;99.90
2657;DHT22;1338;48.176;11.792;2023-04-25T04:12:26;6.00;99.90
2657;DHT22;1338;48.176;11.792;2023-04-25T04:14:55;6.00;99.90
2657;DHT22;1338;48.176;11.792;2023-04-25T04:17:23;6.10;99.90
2657;DHT22;1338;48.176;11.792;2023-04-25T04:19:52;6.00;99.90
2657;DHT22;1338;48.176;11.792;2023-04-25T04:22:22;6.10;99.90
2657;DHT22;1338;48.176;11.792;2023-04-25T04:24:53;6.10;99.90
2657;DHT22;1338;48.176;11.792;2023-04-25T04:27:37;6.10;99.90
2657;DHT22;1338;48.176;11.792;2023-04-25T04:30:32;6.00;99.90
2657;DHT22;1338;48.176;11.792;2023-04-25T04:33:05;6.00;99.90
2657;DHT22;1338;48.176;11.792;2023-04-25T04:35:35;6.00;99.90
2657;DHT22;1338;48.176;11.792;2023-04-25T04:38:06;5.90;99.90
2657;DHT22;1338;48.176;11.792;2023-04-25T04:40:38;6.00;99.90
2657;DHT22;1338;48.176;11.792;2023-04-25T04:43:21;6.00;99.90
2657;DHT22;1338;48.176;11.792;2023-04-25T04:46:10;6.00;99.90
2657;DHT22;1338;48.176;11.792;2023-04-25T04:48:58;6.00;99.90
2657;DHT22;1338;48.176;11.792;2023-04-25T04:51:45;6.10;99.90
2657;DHT22;1338;48.176;11.792;2023-04-25T04:54:39;6.20;99.90
2657;DHT22;1338;48.176;11.792;2023-04-25T04:57:27;6.10;99.90
2657;DHT22;1338;48.176;11.792;2023-04-25T05:00:14;6.20;99.90
2657;DHT22;1338;48.176;11.792;2023-04-25T05:02:55;6.10;99.90
2657;DHT22;1338;48.176;11.792;2023-04-25T05:05:41;6.10;99.90
2657;DHT22;1338;48.176;11.792;2023-04-25T05:08:44;6.20;99.90
2657;DHT22;1338;48.176;11.792;2023-04-25T05:11:43;6.20;1.00
2657;DHT22;1338;48.176;11.792;2023-04-25T05:14:38;6.20;99.90
2657;DHT22;1338;48.176;11.792;2023-04-25T05:17:27;6.80;1.00
2657;DHT22;1338;48.176;11.792;2023-04-25T05:20:14;6.70;1.00
2657;DHT22;1338;48.176;11.792;2023-04-25T05:23:01;6.30;1.00
2657;DHT22;1338;48.176;11.792;2023-04-25T05:25:48;6.70;1.00
2657;DHT22;1338;48.176;11.792;2023-04-25T05:28:39;6.30;99.90
2657;DHT22;1338;48.176;11.792;2023-04-25T05:31:33;6.20;1.00
2657;DHT22;1338;48.176;11.792;2023-04-25T05:34:06;6.20;1.00
2657;DHT22;1338;48.176;11.792;2023-04-25T05:37:07;6.30;1.00
2657;DHT22;1338;48.176;11.792;2023-04-25T05:39:45;6.20;1.00
2657;DHT22;1338;48.176;11.792;2023-04-25T05:42:45;6.30;99.90
2657;DHT22;1338;48.176;11.792;2023-04-25T05:45:32;6.50;99.90
2657;DHT22;1338;48.176;11.792;2023-04-25T05:48:26;6.60;99.90
2657;DHT22;1338;48.176;11.792;2023-04-25T05:51:14;6.90;99.90
2657;DHT22;1338;48.176;11.792;2023-04-25T05:54:08;6.70;99.90
2657;DHT22;1338;48.176;11.792;2023-04-25T05:56:38;6.60;99.90
2657;DHT22;1338;48.176;11.792;2023-04-25T05:59:06;6.60;99.90
2657;DHT22;1338;48.176;11.792;2023-04-25T06:01:37;6.70;99.90
2657;DHT22;1338;48.176;11.792;2023-04-25T06:04:06;6.70;99.90
2657;DHT22;1338;48.176;11.792;2023-04-25T06:06:35;6.60;99.90
2657;DHT22;1338;48.176;11.792;2023-04-25T06:09:03;6.70;99.90
2657;DHT22;1338;48.176;11.792;2023-04-25T06:11:31;6.80;99.90
2657;DHT22;1338;48.176;11.792;2023-04-25T06:13:59;6.90;99.90
2657;DHT22;1338;48.176;11.792;2023-04-25T06:16:28;6.90;99.90
2657;DHT22;1338;48.176;11.792;2023-04-25T06:18:58;6.90;99.90
2657;DHT22;1338;48.176;11.792;2023-04-25T06:21:27;6.90;99.90
2657;DHT22;1338;48.176;11.792;2023-04-25T06:23:55;6.90;99.90
2657;DHT22;1338;48.176;11.792;2023-04-25T06:26:23;6.90;99.90
2657;DHT22;1338;48.176;11.792;2023-04-25T06:28:51;6.60;99.90
2657;DHT22;1338;48.176;11.792;2023-04-25T06:31:20;6.50;99.90
2657;DHT22;1338;48.176;11.792;2023-04-25T06:33:49;6.30;99.90
2657;DHT22;1338;48.176;11.792;2023-04-25T06:36:19;6.20;99.90
2657;DHT22;1338;48.176;11.792;2023-04-25T06:38:54;5.90;1.00
2657;DHT22;1338;48.176;11.792;2023-04-25T06:41:22;5.70;1.00
2657;DHT22;1338;48.176;11.792;2023-04-25T06:43:50;5.60;1.00
2657;DHT22;1338;48.176;11.792;2023-04-25T06:46:26;5.60;1.00
2657;DHT22;1338;48.176;11.792;2023-04-25T06:48:57;5.70;1.00
2657;DHT22;1338;48.176;11.792;2023-04-25T06:51:27;5.80;1.00
2657;DHT22;1338;48.176;11.792;2023-04-25T06:53:57;5.80;1.00
2657;DHT22;1338;48.176;11.792;2023-04-25T06:56:31;6.00;1.00
2657;DHT22;1338;48.176;11.792;2023-04-25T06:59:07;6.10;1.00
2657;DHT22;1338;48.176;11.792;2023-04-25T07:01:38;6.10;1.00
2657;DHT22;1338;48.176;11.792;2023-04-25T07:04:19;6.10;1.00
2657;DHT22;1338;48.176;11.792;2023-04-25T07:06:52;6.30;1.00
2657;DHT22;1338;48.176;11.792;2023-04-25T07:09:29;6.30;1.00
2657;DHT22;1338;48.176;11.792;2023-04-25T07:12:00;6.50;1.00
2657;DHT22;1338;48.176;11.792;2023-04-25T07:14:29;6.50;1.00
2657;DHT22;1338;48.176;11.792;2023-04-25T07:16:57;6.60;1.00
2657;DHT22;1338;48.176;11.792;2023-04-25T07:19:28;6.70;1.00
2657;DHT22;1338;48.176;11.792;2023-04-25T07:22:00;6.90;1.00
2657;DHT22;1338;48.176;11.792;2023-04-25T07:24:31;7.00;1.00
2657;DHT22;1338;48.176;11.792;2023-04-25T07:26:59;7.40;1.00
2657;DHT22;1338;48.176;11.792;2023-04-25T07:29:31;7.50;1.00
2657;DHT22;1338;48.176;11.792;2023-04-25T07:31:59;7.40;1.00
2657;DHT22;1338;48.176;11.792;2023-04-25T07:34:28;7.30;1.00
2657;DHT22;1338;48.176;11.792;2023-04-25T07:36:56;7.30;1.00
2657;DHT22;1338;48.176;11.792;2023-04-25T07:39:30;7.20;1.00
2657;DHT22;1338;48.176;11.792;2023-04-25T07:41:59;7.20;99.90
2657;DHT22;1338;48.176;11.792;2023-04-25T07:44:29;7.40;1.00
2657;DHT22;1338;48.176;11.792;2023-04-25T07:46:58;7.40;99.90
2657;DHT22;1338;48.176;11.792;2023-04-25T07:49:30;7.50;99.90
2657;DHT22;1338;48.176;11.792;2023-04-25T07:51:58;7.40;99.90
2657;DHT22;1338;48.176;11.792;2023-04-25T07:54:26;7.30;99.90
2657;DHT22;1338;48.176;11.792;2023-04-25T07:57:02;7.40;99.90
2657;DHT22;1338;48.176;11.792;2023-04-25T07:59:30;7.30;99.90
2657;DHT22;1338;48.176;11.792;2023-04-25T08:02:01;7.40;99.90
2657;DHT22;1338;48.176;11.792;2023-04-25T08:04:30;7.60;99.90
2657;DHT22;1338;48.176;11.792;2023-04-25T08:07:04;7.70;99.90
2657;DHT22;1338;48.176;11.792;2023-04-25T08:09:43;7.60;99.90
2657;DHT22;1338;48.176;11.792;2023-04-25T08:12:22;7.70;99.90
2657;DHT22;1338;48.176;11.792;2023-04-25T08:14:50;7.80;99.90
2657;DHT22;1338;48.176;11.792;2023-04-25T08:17:19;8.10;99.90
2657;DHT22;1338;48.176;11.792;2023-04-25T08:19:47;8.50;99.90
2657;DHT22;1338;48.176;11.792;2023-04-25T08:22:23;8.50;99.90
2657;DHT22;1338;48.176;11.792;2023-04-25T08:24:59;8.40;99.90
2657;DHT22;1338;48.176;11.792;2023-04-25T08:27:29;8.70;99.90
2657;DHT22;1338;48.176;11.792;2023-04-25T08:29:58;8.40;99.90
2657;DHT22;1338;48.176;11.792;2023-04-25T08:32:26;8.40;99.90
2657;DHT22;1338;48.176;11.792;2023-04-25T08:35:17;8.80;99.90
2657;DHT22;1338;48.176;11.792;2023-04-25T08:37:45;9.60;99.90
2657;DHT22;1338;48.176;11.792;2023-04-25T08:40:15;9.20;99.90
2657;DHT22;1338;48.176;11.792;2023-04-25T08:42:53;9.50;99.90
2657;DHT22;1338;48.176;11.792;2023-04-25T08:45:21;10.00;99.90
2657;DHT22;1338;48.176;11.792;2023-04-25T08:47:51;9.40;99.90
2657;DHT22;1338;48.176;11.792;2023-04-25T08:50:22;9.50;99.90
2657;DHT22;1338;48.176;11.792;2023-04-25T08:52:54;9.50;99.90
2657;DHT22;1338;48.176;11.792;2023-04-25T08:55:22;9.90;99.90
2657;DHT22;1338;48.176;11.792;2023-04-25T08:57:57;10.10;99.90
2657;DHT22;1338;48.176;11.792;2023-04-25T09:00:27;9.90;99.90
2657;DHT22;1338;48.176;11.792;2023-04-25T09:02:56;9.50;99.90
2657;DHT22;1338;48.176;11.792;2023-04-25T09:05:29;9.40;99.90
2657;DHT22;1338;48.176;11.792;2023-04-25T09:07:57;9.40;99.90
2657;DHT22;1338;48.176;11.792;2023-04-25T09:10:27;9.20;99.90
2657;DHT22;1338;48.176;11.792;2023-04-25T09:13:06;9.00;99.90
2657;DHT22;1338;48.176;11.792;2023-04-25T09:15:59;8.90;99.90
2657;DHT22;1338;48.176;11.792;2023-04-25T09:18:53;8.90;99.90
2657;DHT22;1338;48.176;11.792;2023-04-25T09:21:22;9.70;99.90
2657;DHT22;1338;48.176;11.792;2023-04-25T09:23:50;10.00;94.40
2657;DHT22;1338;48.176;11.792;2023-04-25T09:26:20;10.10;69.10
2657;DHT22;1338;48.176;11.792;2023-04-25T09:29:05;10.40;72.20
2657;DHT22;1338;48.176;11.792;2023-04-25T09:31:35;10.40;18.60
2657;DHT22;1338;48.176;11.792;2023-04-25T09:34:04;10.70;21.00
2657;DHT22;1338;48.176;11.792;2023-04-25T09:36:41;11.10;30.50
2657;DHT22;1338;48.176;11.792;2023-04-25T09:39:49;10.80;10.40
2657;DHT22;1338;48.176;11.792;2023-04-25T09:42:18;10.60;1.00
2657;DHT22;1338;48.176;11.792;2023-04-25T09:44:47;11.00;1.00
2657;DHT22;1338;48.176;11.792;2023-04-25T09:47:16;11.10;1.00
2657;DHT22;1338;48.176;11.792;2023-04-25T09:49:45;11.10;1.00
2657;DHT22;1338;48.176;11.792;2023-04-25T09:52:15;10.60;1.00
2657;DHT22;1338;48.176;11.792;2023-04-25T09:54:56;10.20;1.00
2657;DHT22;1338;48.176;11.792;2023-04-25T09:57:30;10.10;1.00
2657;DHT22;1338;48.176;11.792;2023-04-25T10:00:00;10.70;3.30
2657;DHT22;1338;48.176;11.792;2023-04-25T10:02:42;11.10;1.00
2657;DHT22;1338;48.176;11.792;2023-04-25T10:05:21;11.10;1.00
2657;DHT22;1338;48.176;11.792;2023-04-25T10:07:49;11.40;1.00
2657;DHT22;1338;48.176;11.792;2023-04-25T10:10:18;11.40;1.00
2657;DHT22;1338;48.176;11.792;2023-04-25T10:12:52;11.80;1.00
2657;DHT22;1338;48.176;11.792;2023-04-25T10:15:22;11.60;1.00
2657;DHT22;1338;48.176;11.792;2023-04-25T10:17:51;12.10;1.00
2657;DHT22;1338;48.176;11.792;2023-04-25T10:20:20;12.10;1.00
2657;DHT22;1338;48.176;11.792;2023-04-25T10:22:50;11.50;1.00
2657;DHT22;1338;48.176;11.792;2023-04-25T10:25:20;11.30;1.00
2657;DHT22;1338;48.176;11.792;2023-04-25T10:27:50;11.30;1.00
2657;DHT22;1338;48.176;11.792;2023-04-25T10:30:19;11.30;1.00
2657;DHT22;1338;48.176;11.792;2023-04-25T10:32:48;11.60;1.00
2657;DHT22;1338;48.176;11.792;2023-04-25T10:35:19;11.10;1.00
2657;DHT22;1338;48.176;11.792;2023-04-25T10:38:02;10.90;1.00
2657;DHT22;1338;48.176;11.792;2023-04-25T10:40:31;10.90;1.00
2657;DHT22;1338;48.176;11.792;2023-04-25T10:43:33;11.10;1.00
2657;DHT22;1338;48.176;11.792;2023-04-25T10:46:02;11.80;1.00
2657;DHT22;1338;48.176;11.792;2023-04-25T10:48:31;11.60;1.00
2657;DHT22;1338;48.176;11.792;2023-04-25T10:51:09;12.40;1.00
2657;DHT22;1338;48.176;11.792;2023-04-25T10:53:37;12.60;1.00
2657;DHT22;1338;48.176;11.792;2023-04-25T10:56:10;12.00;1.00
2657;DHT22;1338;48.176;11.792;2023-04-25T10:58:43;12.30;1.00
2657;DHT22;1338;48.176;11.792;2023-04-25T11:01:13;12.30;1.00
2657;DHT22;1338;48.176;11.792;2023-04-25T11:03:43;11.60;1.00
2657;DHT22;1338;48.176;11.792;2023-04-25T11:06:20;10.90;1.00
2657;DHT22;1338;48.176;11.792;2023-04-25T11:08:51;10.20;1.00
2657;DHT22;1338;48.176;11.792;2023-04-25T11:11:19;9.70;1.00
2657;DHT22;1338;48.176;11.792;2023-04-25T11:13:48;9.40;1.00
2657;DHT22;1338;48.176;11.792;2023-04-25T11:16:17;9.30;1.00
2657;DHT22;1338;48.176;11.792;2023-04-25T11:18:57;9.10;1.00
2657;DHT22;1338;48.176;11.792;2023-04-25T11:21:25;9.20;1.00
2657;DHT22;1338;48.176;11.792;2023-04-25T11:23:55;8.70;1.00
2657;DHT22;1338;48.176;11.792;2023-04-25T11:26:24;8.50;26.00
2657;DHT22;1338;48.176;11.792;2023-04-25T11:28:57;8.60;99.90
2657;DHT22;1338;48.176;11.792;2023-04-25T11:31:26;8.40;99.90
2657;DHT22;1338;48.176;11.792;2023-04-25T11:33:57;8.30;99.90
2657;DHT22;1338;48.176;11.792;2023-04-25T11:36:25;8.10;99.90
2657;DHT22;1338;48.176;11.792;2023-04-25T11:38:54;8.20;99.90
2657;DHT22;1338;48.176;11.792;2023-04-25T11:41:22;8.10;99.90
2657;DHT22;1338;48.176;11.792;2023-04-25T11:43:52;7.90;99.90
2657;DHT22;1338;48.176;11.792;2023-04-25T11:46:21;7.90;99.90
2657;DHT22;1338;48.176;11.792;2023-04-25T11:48:51;7.70;99.90
2657;DHT22;1338;48.176;11.792;2023-04-25T11:51:21;7.80;99.90
2657;DHT22;1338;48.176;11.792;2023-04-25T11:53:49;7.90;99.90
2657;DHT22;1338;48.176;11.792;2023-04-25T11:56:17;8.10;99.90
2657;DHT22;1338;48.176;11.792;2023-04-25T11:58:58;8.30;99.90
2657;DHT22;1338;48.176;11.792;2023-04-25T12:01:31;8.50;99.90
2657;DHT22;1338;48.176;11.792;2023-04-25T12:04:10;8.30;99.90
2657;DHT22;1338;48.176;11.792;2023-04-25T12:06:43;8.00;99.90
2657;DHT22;1338;48.176;11.792;2023-04-25T12:09:14;7.90;99.90
2657;DHT22;1338;48.176;11.792;2023-04-25T12:11:45;8.00;99.90
2657;DHT22;1338;48.176;11.792;2023-04-25T12:14:21;8.70;99.90
2657;DHT22;1338;48.176;11.792;2023-04-25T12:16:51;8.80;99.90
2657;DHT22;1338;48.176;11.792;2023-04-25T12:19:20;8.70;99.90
2657;DHT22;1338;48.176;11.792;2023-04-25T12:21:50;9.00;99.90
2657;DHT22;1338;48.176;11.792;2023-04-25T12:24:23;8.60;99.90
2657;DHT22;1338;48.176;11.792;2023-04-25T12:26:53;8.40;99.90
2657;DHT22;1338;48.176;11.792;2023-04-25T12:29:27;8.00;99.90
2657;DHT22;1338;48.176;11.792;2023-04-25T12:32:01;7.40;99.90
2657;DHT22;1338;48.176;11.792;2023-04-25T12:34:29;7.10;1.00
2657;DHT22;1338;48.176;11.792;2023-04-25T12:37:00;6.80;1.00
2657;DHT22;1338;48.176;11.792;2023-04-25T12:39:28;6.80;1.00
2657;DHT22;1338;48.176;11.792;2023-04-25T12:41:56;6.80;1.00
2657;DHT22;1338;48.176;11.792;2023-04-25T12:44:24;6.70;1.00
2657;DHT22;1338;48.176;11.792;2023-04-25T12:46:52;6.60;1.00
2657;DHT22;1338;48.176;11.792;2023-04-25T12:49:21;6.40;1.00
2657;DHT22;1338;48.176;11.792;2023-04-25T12:51:50;6.40;56.90
2657;DHT22;1338;48.176;11.792;2023-04-25T12:54:19;6.40;99.90
2657;DHT22;1338;48.176;11.792;2023-04-25T12:56:48;6.30;99.90
2657;DHT22;1338;48.176;11.792;2023-04-25T12:59:17;6.30;99.90
2657;DHT22;1338;48.176;11.792;2023-04-25T13:01:45;6.30;84.80
2657;DHT22;1338;48.176;11.792;2023-04-25T13:04:13;6.50;1.00
2657;DHT22;1338;48.176;11.792;2023-04-25T13:06:43;6.50;58.80
2657;DHT22;1338;48.176;11.792;2023-04-25T13:09:11;6.50;99.90
2657;DHT22;1338;48.176;11.792;2023-04-25T13:11:41;6.50;1.00
2657;DHT22;1338;48.176;11.792;2023-04-25T13:14:09;6.60;1.00
2657;DHT22;1338;48.176;11.792;2023-04-25T13:16:37;6.60;1.00
2657;DHT22;1338;48.176;11.792;2023-04-25T13:19:05;6.70;1.00
2657;DHT22;1338;48.176;11.792;2023-04-25T13:21:37;6.70;1.00
2657;DHT22;1338;48.176;11.792;2023-04-25T13:24:06;6.60;1.00
2657;DHT22;1338;48.176;11.792;2023-04-25T13:26:34;6.50;1.00
2657;DHT22;1338;48.176;11.792;2023-04-25T13:29:04;6.30;1.00
2657;DHT22;1338;48.176;11.792;2023-04-25T13:31:32;6.40;1.00
2657;DHT22;1338;48.176;11.792;2023-04-25T13:34:01;6.40;1.00
2657;DHT22;1338;48.176;11.792;2023-04-25T13:36:30;6.20;82.00
2657;DHT22;1338;48.176;11.792;2023-04-25T13:38:58;6.00;99.90
2657;DHT22;1338;48.176;11.792;2023-04-25T13:41:26;5.80;1.00
2657;DHT22;1338;48.176;11.792;2023-04-25T13:43:55;5.80;1.00
2657;DHT22;1338;48.176;11.792;2023-04-25T13:46:24;5.80;1.00
2657;DHT22;1338;48.176;11.792;2023-04-25T13:49:11;6.00;99.90
2657;DHT22;1338;48.176;11.792;2023-04-25T13:51:40;6.00;1.00
2657;DHT22;1338;48.176;11.792;2023-04-25T13:54:09;6.00;1.00
2657;DHT22;1338;48.176;11.792;2023-04-25T13:56:37;6.00;23.20
2657;DHT22;1338;48.176;11.792;2023-04-25T13:59:05;6.00;1.00
2657;DHT22;1338;48.176;11.792;2023-04-25T14:01:35;6.20;1.00
2657;DHT22;1338;48.176;11.792;2023-04-25T14:04:03;6.00;1.00
2657;DHT22;1338;48.176;11.792;2023-04-25T14:06:32;6.00;1.00
2657;DHT22;1338;48.176;11.792;2023-04-25T14:09:00;5.90;1.00
2657;DHT22;1338;48.176;11.792;2023-04-25T14:11:30;5.80;1.00
2657;DHT22;1338;48.176;11.792;2023-04-25T14:13:58;5.80;1.00
2657;DHT22;1338;48.176;11.792;2023-04-25T14:16:26;5.80;1.00
2657;DHT22;1338;48.176;11.792;2023-04-25T14:18:57;5.80;1.00
2657;DHT22;1338;48.176;11.792;2023-04-25T14:21:25;6.00;1.00
2657;DHT22;1338;48.176;11.792;2023-04-25T14:23:53;6.00;1.00
2657;DHT22;1338;48.176;11.792;2023-04-25T14:26:21;6.10;1.00
2657;DHT22;1338;48.176;11.792;2023-04-25T14:28:50;6.10;1.00
2657;DHT22;1338;48.176;11.792;2023-04-25T14:31:19;6.20;60.00
2657;DHT22;1338;48.176;11.792;2023-04-25T14:33:47;6.20;99.90
2657;DHT22;1338;48.176;11.792;2023-04-25T14:36:17;6.00;18.60
2657;DHT22;1338;48.176;11.792;2023-04-25T14:38:45;6.10;99.90
2657;DHT22;1338;48.176;11.792;2023-04-25T14:41:13;5.90;99.50
2657;DHT22;1338;48.176;11.792;2023-04-25T14:43:42;6.00;99.90
2657;DHT22;1338;48.176;11.792;2023-04-25T14:46:11;5.90;99.90
2657;DHT22;1338;48.176;11.792;2023-04-25T14:48:39;6.00;99.90
2657;DHT22;1338;48.176;11.792;2023-04-25T14:51:08;6.20;99.90
2657;DHT22;1338;48.176;11.792;2023-04-25T14:53:37;6.30;99.90
2657;DHT22;1338;48.176;11.792;2023-04-25T14:56:05;6.40;99.90
2657;DHT22;1338;48.176;11.792;2023-04-25T14:58:34;6.40;1.00
2657;DHT22;1338;48.176;11.792;2023-04-25T15:01:02;6.60;99.90
2657;DHT22;1338;48.176;11.792;2023-04-25T15:03:30;6.60;99.90
2657;DHT22;1338;48.176;11.792;2023-04-25T15:06:00;6.80;1.00
2657;DHT22;1338;48.176;11.792;2023-04-25T15:08:28;6.90;1.00
2657;DHT22;1338;48.176;11.792;2023-04-25T15:10:58;6.90;1.00
2657;DHT22;1338;48.176;11.792;2023-04-25T15:13:26;6.80;1.00
2657;DHT22;1338;48.176;11.792;2023-04-25T15:15:54;6.90;1.00
2657;DHT22;1338;48.176;11.792;2023-04-25T15:18:23;7.00;1.00
2657;DHT22;1338;48.176;11.792;2023-04-25T15:20:52;6.90;1.00
2657;DHT22;1338;48.176;11.792;2023-04-25T15:23:22;7.10;1.00
2657;DHT22;1338;48.176;11.792;2023-04-25T15:25:52;7.10;1.00
2657;DHT22;1338;48.176;11.792;2023-04-25T15:28:21;7.30;1.00
2657;DHT22;1338;48.176;11.792;2023-04-25T15:30:49;7.10;1.00
2657;DHT22;1338;48.176;11.792;2023-04-25T15:33:17;7.40;1.00
2657;DHT22;1338;48.176;11.792;2023-04-25T15:35:45;7.50;1.00
2657;DHT22;1338;48.176;11.792;2023-04-25T15:38:13;7.70;1.00
2657;DHT22;1338;48.176;11.792;2023-04-25T15:40:41;7.70;1.00
2657;DHT22;1338;48.176;11.792;2023-04-25T15:43:10;7.50;1.00
2657;DHT22;1338;48.176;11.792;2023-04-25T15:45:43;7.40;1.00
2657;DHT22;1338;48.176;11.792;2023-04-25T15:48:12;7.30;1.00
2657;DHT22;1338;48.176;11.792;2023-04-25T15:50:40;7.10;1.00
2657;DHT22;1338;48.176;11.792;2023-04-25T15:53:09;7.00;1.00
2657;DHT22;1338;48.176;11.792;2023-04-25T15:55:37;7.00;1.00
2657;DHT22;1338;48.176;11.792;2023-04-25T15:58:05;7.00;1.00
2657;DHT22;1338;48.176;11.792;2023-04-25T16:00:37;7.00;1.00
2657;DHT22;1338;48.176;11.792;2023-04-25T16:03:07;7.10;1.00
2657;DHT22;1338;48.176;11.792;2023-04-25T16:05:36;7.10;1.00
2657;DHT22;1338;48.176;11.792;2023-04-25T16:08:05;7.20;1.00
2657;DHT22;1338;48.176;11.792;2023-04-25T16:10:33;7.20;1.00
2657;DHT22;1338;48.176;11.792;2023-04-25T16:13:02;7.10;1.00
2657;DHT22;1338;48.176;11.792;2023-04-25T16:15:30;7.10;1.00
2657;DHT22;1338;48.176;11.792;2023-04-25T16:18:01;7.10;1.00
2657;DHT22;1338;48.176;11.792;2023-04-25T16:20:31;7.10;1.00
2657;DHT22;1338;48.176;11.792;2023-04-25T16:22:59;7.00;1.00
2657;DHT22;1338;48.176;11.792;2023-04-25T16:25:27;6.90;1.00
2657;DHT22;1338;48.176;11.792;2023-04-25T16:27:55;7.00;1.00
2657;DHT22;1338;48.176;11.792;2023-04-25T16:30:23;7.00;1.00
2657;DHT22;1338;48.176;11.792;2023-04-25T16:32:52;7.00;1.00
2657;DHT22;1338;48.176;11.792;2023-04-25T16:35:23;7.10;1.00
2657;DHT22;1338;48.176;11.792;2023-04-25T16:37:52;6.90;1.00